sensor_id;sensor_type;location;lat;lon;timestamp;temperature;humidity
48575;DHT22;34352;51.084;3.712;2023-04-25T00:00:30;9.80;1.00
48575;DHT22;34352;51.084;3.712;2023-04-25T00:02:56;9.80;1.00
48575;DHT22;34352;51.084;3.712;2023-04-25T00:05:23;9.80;1.00
48575;DHT22;34352;51.084;3.712;2023-04-25T00:07:49;9.80;1.00
48575;DHT22;34352;51.084;3.712;2023-04-25T00:10:15;9.80;1.00
48575;DHT22;34352;51.084;3.712;2023-04-25T00:12:41;9.80;1.00
48575;DHT22;34352;51.084;3.712;2023-04-25T00:15:07;9.80;1.00
48575;DHT22;34352;51.084;3.712;2023-04-25T00:17:33;9.80;1.00
48575;DHT22;34352;51.084;3.712;2023-04-25T00:20:01;9.80;1.00
48575;DHT22;34352;51.084;3.712;2023-04-25T00:22:32;9.90;1.00
48575;DHT22;34352;51.084;3.712;2023-04-25T00:25:00;9.80;1.00
48575;DHT22;34352;51.084;3.712;2023-04-25T00:27:26;9.80;1.00
48575;DHT22;34352;51.084;3.712;2023-04-25T00:29:52;9.80;1.00
48575;DHT22;34352;51.084;3.712;2023-04-25T00:32:17;9.70;1.00
48575;DHT22;34352;51.084;3.712;2023-04-25T00:34:43;9.80;1.00
48575;DHT22;34352;51.084;3.712;2023-04-25T00:37:09;9.80;1.00
48575;DHT22;34352;51.084;3.712;2023-04-25T00:39:35;9.80;1.00
48575;DHT22;34352;51.084;3.712;2023-04-25T00:42:02;10.30;1.00
48575;DHT22;34352;51.084;3.712;2023-04-25T00:44:30;9.80;1.00
48575;DHT22;34352;51.084;3.712;2023-04-25T00:46:56;9.70;1.00
48575;DHT22;34352;51.084;3.712;2023-04-25T00:49:21;9.70;1.00
48575;DHT22;34352;51.084;3.712;2023-04-25T00:51:48;9.70;1.00
48575;DHT22;34352;51.084;3.712;2023-04-25T00:54:14;9.70;1.00
48575;DHT22;34352;51.084;3.712;2023-04-25T00:56:40;9.70;1.00
48575;DHT22;34352;51.084;3.712;2023-04-25T00:59:07;9.70;1.00
48575;DHT22;34352;51.084;3.712;2023-04-25T01:01:33;9.60;1.00
48575;DHT22;34352;51.084;3.712;2023-04-25T01:03:59;9.70;1.00
48575;DHT22;34352;51.084;3.712;2023-04-25T01:06:26;9.60;1.00
48575;DHT22;34352;51.084;3.712;2023-04-25T01:08:53;9.50;1.00
48575;DHT22;34352;51.084;3.712;2023-04-25T01:11:21;9.60;1.00
48575;DHT22;34352;51.084;3.712;2023-04-25T01:13:48;9.50;1.00
48575;DHT22;34352;51.084;3.712;2023-04-25T01:16:15;9.50;1.00
48575;DHT22;34352;51.084;3.712;2023-04-25T01:18:43;9.50;1.00
48575;DHT22;34352;51.084;3.712;2023-04-25T01:21:11;9.50;1.00
48575;DHT22;34352;51.084;3.712;2023-04-25T01:23:39;9.50;1.00
48575;DHT22;34352;51.084;3.712;2023-04-25T01:26:06;9.40;1.00
48575;DHT22;34352;51.084;3.712;2023-04-25T01:28:34;9.40;1.00
48575;DHT22;34352;51.084;3.712;2023-04-25T01:31:01;9.30;1.00
48575;DHT22;34352;51.084;3.712;2023-04-25T01:33:27;9.30;1.00
48575;DHT22;34352;51.084;3.712;2023-04-25T01:35:53;9.30;1.00
48575;DHT22;34352;51.084;3.712;2023-04-25T01:38:18;9.30;1.00
48575;DHT22;34352;51.084;3.712;2023-04-25T01:40:46;9.40;1.00
48575;DHT22;34352;51.084;3.712;2023-04-25T01:43:22;9.20;1.00
48575;DHT22;34352;51.084;3.712;2023-04-25T01:45:50;9.20;1.00
48575;DHT22;34352;51.084;3.712;2023-04-25T01:48:15;9.30;1.00
48575;DHT22;34352;51.084;3.712;2023-04-25T01:50:41;9.30;1.00
48575;DHT22;34352;51.084;3.712;2023-04-25T01:53:09;9.40;1.00
48575;DHT22;34352;51.084;3.712;2023-04-25T01:55:35;9.10;1.00
48575;DHT22;34352;51.084;3.712;2023-04-25T01:58:02;9.10;1.00
48575;DHT22;34352;51.084;3.712;2023-04-25T02:00:28;9.10;1.00
48575;DHT22;34352;51.084;3.712;2023-04-25T02:02:58;9.10;1.00
48575;DHT22;34352;51.084;3.712;2023-04-25T02:05:23;9.10;1.00
48575;DHT22;34352;51.084;3.712;2023-04-25T02:07:49;9.00;1.00
48575;DHT22;34352;51.084;3.712;2023-04-25T02:10:15;8.90;1.00
48575;DHT22;34352;51.084;3.712;2023-04-25T02:12:41;9.10;1.00
48575;DHT22;34352;51.084;3.712;2023-04-25T02:15:07;8.90;1.00
48575;DHT22;34352;51.084;3.712;2023-04-25T02:17:32;8.90;1.00
48575;DHT22;34352;51.084;3.712;2023-04-25T02:19:59;9.10;1.00
48575;DHT22;34352;51.084;3.712;2023-04-25T02:22:25;9.00;1.00
48575;DHT22;34352;51.084;3.712;2023-04-25T02:24:54;9.00;1.00
48575;DHT22;34352;51.084;3.712;2023-04-25T02:27:20;8.80;1.00
48575;DHT22;34352;51.084;3.712;2023-04-25T02:29:46;8.70;1.00
48575;DHT22;34352;51.084;3.712;2023-04-25T02:32:11;8.70;1.00
48575;DHT22;34352;51.084;3.712;2023-04-25T02:34:37;8.80;1.00
48575;DHT22;34352;51.084;3.712;2023-04-25T02:37:03;9.20;1.00
48575;DHT22;34352;51.084;3.712;2023-04-25T02:39:29;8.90;1.00
48575;DHT22;34352;51.084;3.712;2023-04-25T02:41:56;8.90;1.00
48575;DHT22;34352;51.084;3.712;2023-04-25T02:44:22;8.90;1.00
48575;DHT22;34352;51.084;3.712;2023-04-25T02:46:53;8.80;1.00
48575;DHT22;34352;51.084;3.712;2023-04-25T02:49:22;8.80;1.00
48575;DHT22;34352;51.084;3.712;2023-04-25T02:51:47;8.80;1.00
48575;DHT22;34352;51.084;3.712;2023-04-25T02:54:14;8.70;1.00
48575;DHT22;34352;51.084;3.712;2023-04-25T02:56:40;8.70;1.00
48575;DHT22;34352;51.084;3.712;2023-04-25T02:59:05;8.70;1.00
48575;DHT22;34352;51.084;3.712;2023-04-25T03:01:31;8.70;1.00
48575;DHT22;34352;51.084;3.712;2023-04-25T03:03:57;8.70;1.00
48575;DHT22;34352;51.084;3.712;2023-04-25T03:06:22;8.60;1.00
48575;DHT22;34352;51.084;3.712;2023-04-25T03:08:48;8.60;1.00
48575;DHT22;34352;51.084;3.712;2023-04-25T03:11:15;8.60;1.00
48575;DHT22;34352;51.084;3.712;2023-04-25T03:13:41;8.50;1.00
48575;DHT22;34352;51.084;3.712;2023-04-25T03:16:07;8.60;1.00
48575;DHT22;34352;51.084;3.712;2023-04-25T03:18:32;8.50;1.00
48575;DHT22;34352;51.084;3.712;2023-04-25T03:20:59;8.50;1.00
48575;DHT22;34352;51.084;3.712;2023-04-25T03:23:25;8.50;1.00
48575;DHT22;34352;51.084;3.712;2023-04-25T03:25:51;8.50;1.00
48575;DHT22;34352;51.084;3.712;2023-04-25T03:28:17;8.50;1.00
48575;DHT22;34352;51.084;3.712;2023-04-25T03:30:42;8.90;1.00
48575;DHT22;34352;51.084;3.712;2023-04-25T03:33:08;8.10;1.00
48575;DHT22;34352;51.084;3.712;2023-04-25T03:35:34;8.00;1.00
48575;DHT22;34352;51.084;3.712;2023-04-25T03:37:59;8.00;1.00
48575;DHT22;34352;51.084;3.712;2023-04-25T03:40:25;8.10;1.00
48575;DHT22;34352;51.084;3.712;2023-04-25T03:42:51;8.20;1.00
48575;DHT22;34352;51.084;3.712;2023-04-25T03:45:16;8.10;1.00
48575;DHT22;34352;51.084;3.712;2023-04-25T03:47:43;8.10;1.00
48575;DHT22;34352;51.084;3.712;2023-04-25T03:50:09;8.20;1.00
48575;DHT22;34352;51.084;3.712;2023-04-25T03:52:35;8.20;1.00
48575;DHT22;34352;51.084;3.712;2023-04-25T03:55:01;8.30;1.00
48575;DHT22;34352;51.084;3.712;2023-04-25T03:57:27;8.20;1.00
48575;DHT22;34352;51.084;3.712;2023-04-25T03:59:53;8.20;1.00
48575;DHT22;34352;51.084;3.712;2023-04-25T04:02:19;8.20;1.00
48575;DHT22;34352;51.084;3.712;2023-04-25T04:04:45;8.20;1.00
48575;DHT22;34352;51.084;3.712;2023-04-25T04:07:11;8.30;1.00
48575;DHT22;34352;51.084;3.712;2023-04-25T04:09:38;8.10;1.00
48575;DHT22;34352;51.084;3.712;2023-04-25T04:12:04;8.20;1.00
48575;DHT22;34352;51.084;3.712;2023-04-25T04:14:30;8.20;1.00
48575;DHT22;34352;51.084;3.712;2023-04-25T04:16:57;8.20;1.00
48575;DHT22;34352;51.084;3.712;2023-04-25T04:19:24;8.20;1.00
48575;DHT22;34352;51.084;3.712;2023-04-25T04:21:51;8.10;1.00
48575;DHT22;34352;51.084;3.712;2023-04-25T04:24:19;8.20;1.00
48575;DHT22;34352;51.084;3.712;2023-04-25T04:26:45;8.40;1.00
48575;DHT22;34352;51.084;3.712;2023-04-25T04:29:11;8.30;1.00
48575;DHT22;34352;51.084;3.712;2023-04-25T04:31:36;8.40;1.00
48575;DHT22;34352;51.084;3.712;2023-04-25T04:34:09;8.40;1.00
48575;DHT22;34352;51.084;3.712;2023-04-25T04:36:57;8.20;1.00
48575;DHT22;34352;51.084;3.712;2023-04-25T04:42:42;8.10;1.00
48575;DHT22;34352;51.084;3.712;2023-04-25T04:48:23;8.20;1.00
48575;DHT22;34352;51.084;3.712;2023-04-25T04:50:49;8.10;1.00
48575;DHT22;34352;51.084;3.712;2023-04-25T04:53:16;8.20;1.00
48575;DHT22;34352;51.084;3.712;2023-04-25T04:55:42;8.20;1.00
48575;DHT22;34352;51.084;3.712;2023-04-25T04:58:08;8.20;1.00
48575;DHT22;34352;51.084;3.712;2023-04-25T05:00:34;8.30;1.00
48575;DHT22;34352;51.084;3.712;2023-04-25T05:03:00;8.10;1.00
48575;DHT22;34352;51.084;3.712;2023-04-25T05:05:28;8.10;1.00
48575;DHT22;34352;51.084;3.712;2023-04-25T05:07:53;8.30;1.00
48575;DHT22;34352;51.084;3.712;2023-04-25T05:10:23;8.40;1.00
48575;DHT22;34352;51.084;3.712;2023-04-25T05:12:49;8.30;1.00
48575;DHT22;34352;51.084;3.712;2023-04-25T05:15:15;8.80;1.00
48575;DHT22;34352;51.084;3.712;2023-04-25T05:17:41;8.40;1.00
48575;DHT22;34352;51.084;3.712;2023-04-25T05:20:08;8.40;1.00
48575;DHT22;34352;51.084;3.712;2023-04-25T05:22:37;8.50;1.00
48575;DHT22;34352;51.084;3.712;2023-04-25T05:25:03;8.60;1.00
48575;DHT22;34352;51.084;3.712;2023-04-25T05:27:30;8.70;1.00
48575;DHT22;34352;51.084;3.712;2023-04-25T05:29:56;8.70;1.00
48575;DHT22;34352;51.084;3.712;2023-04-25T05:32:22;8.70;1.00
48575;DHT22;34352;51.084;3.712;2023-04-25T05:34:50;9.00;1.00
48575;DHT22;34352;51.084;3.712;2023-04-25T05:37:16;8.80;1.00
48575;DHT22;34352;51.084;3.712;2023-04-25T05:39:43;8.90;1.00
48575;DHT22;34352;51.084;3.712;2023-04-25T05:42:09;8.80;1.00
48575;DHT22;34352;51.084;3.712;2023-04-25T05:44:36;8.80;1.00
48575;DHT22;34352;51.084;3.712;2023-04-25T05:47:01;8.90;1.00
48575;DHT22;34352;51.084;3.712;2023-04-25T05:49:28;9.10;1.00
48575;DHT22;34352;51.084;3.712;2023-04-25T05:51:53;9.10;1.00
48575;DHT22;34352;51.084;3.712;2023-04-25T05:54:20;9.20;1.00
48575;DHT22;34352;51.084;3.712;2023-04-25T05:56:46;9.20;1.00
48575;DHT22;34352;51.084;3.712;2023-04-25T05:59:13;9.30;1.00
48575;DHT22;34352;51.084;3.712;2023-04-25T06:01:46;9.30;1.00
48575;DHT22;34352;51.084;3.712;2023-04-25T06:04:12;9.30;1.00
48575;DHT22;34352;51.084;3.712;2023-04-25T06:06:46;9.30;1.00
48575;DHT22;34352;51.084;3.712;2023-04-25T06:09:13;9.30;1.00
48575;DHT22;34352;51.084;3.712;2023-04-25T06:11:39;9.40;1.00
48575;DHT22;34352;51.084;3.712;2023-04-25T06:14:06;9.50;1.00
48575;DHT22;34352;51.084;3.712;2023-04-25T06:16:33;10.00;1.00
48575;DHT22;34352;51.084;3.712;2023-04-25T06:18:59;9.50;1.00
48575;DHT22;34352;51.084;3.712;2023-04-25T06:21:25;9.70;1.00
48575;DHT22;34352;51.084;3.712;2023-04-25T06:23:51;9.70;1.00
48575;DHT22;34352;51.084;3.712;2023-04-25T06:26:16;9.60;1.00
48575;DHT22;34352;51.084;3.712;2023-04-25T06:28:42;9.70;1.00
48575;DHT22;34352;51.084;3.712;2023-04-25T06:31:08;9.80;99.90
48575;DHT22;34352;51.084;3.712;2023-04-25T06:33:34;9.80;99.90
48575;DHT22;34352;51.084;3.712;2023-04-25T06:35:59;9.80;99.90
48575;DHT22;34352;51.084;3.712;2023-04-25T06:38:25;9.80;99.90
48575;DHT22;34352;51.084;3.712;2023-04-25T06:40:51;9.80;99.90
48575;DHT22;34352;51.084;3.712;2023-04-25T06:43:16;9.80;99.90
48575;DHT22;34352;51.084;3.712;2023-04-25T06:45:42;9.90;99.90
48575;DHT22;34352;51.084;3.712;2023-04-25T06:48:09;9.90;99.90
48575;DHT22;34352;51.084;3.712;2023-04-25T06:50:34;10.00;99.90
48575;DHT22;34352;51.084;3.712;2023-04-25T06:53:00;10.10;99.90
48575;DHT22;34352;51.084;3.712;2023-04-25T06:55:27;10.30;99.90
48575;DHT22;34352;51.084;3.712;2023-04-25T06:57:52;11.10;99.90
48575;DHT22;34352;51.084;3.712;2023-04-25T07:00:18;10.40;99.90
48575;DHT22;34352;51.084;3.712;2023-04-25T07:02:56;10.50;99.90
48575;DHT22;34352;51.084;3.712;2023-04-25T07:05:24;10.80;99.90
48575;DHT22;34352;51.084;3.712;2023-04-25T07:07:53;10.90;99.90
48575;DHT22;34352;51.084;3.712;2023-04-25T07:10:20;12.10;99.90
48575;DHT22;34352;51.084;3.712;2023-04-25T07:16:04;14.40;99.90
48575;DHT22;34352;51.084;3.712;2023-04-25T07:18:32;16.00;99.90
48575;DHT22;34352;51.084;3.712;2023-04-25T07:21:04;17.20;99.90
48575;DHT22;34352;51.084;3.712;2023-04-25T07:23:30;18.50;99.90
48575;DHT22;34352;51.084;3.712;2023-04-25T07:25:59;19.50;99.90
48575;DHT22;34352;51.084;3.712;2023-04-25T07:28:48;19.00;99.90
48575;DHT22;34352;51.084;3.712;2023-04-25T07:38:03;18.80;99.90
48575;DHT22;34352;51.084;3.712;2023-04-25T07:40:30;18.90;99.90
48575;DHT22;34352;51.084;3.712;2023-04-25T07:43:00;19.70;99.90
48575;DHT22;34352;51.084;3.712;2023-04-25T07:45:26;19.20;99.90
48575;DHT22;34352;51.084;3.712;2023-04-25T07:47:53;20.00;99.90
48575;DHT22;34352;51.084;3.712;2023-04-25T07:50:21;20.70;99.90
48575;DHT22;34352;51.084;3.712;2023-04-25T07:52:50;21.00;99.90
48575;DHT22;34352;51.084;3.712;2023-04-25T07:55:17;20.60;99.90
48575;DHT22;34352;51.084;3.712;2023-04-25T07:57:43;20.50;99.90
48575;DHT22;34352;51.084;3.712;2023-04-25T08:05:49;17.20;99.90
48575;DHT22;34352;51.084;3.712;2023-04-25T08:08:15;16.20;99.90
48575;DHT22;34352;51.084;3.712;2023-04-25T08:10:44;15.10;99.90
48575;DHT22;34352;51.084;3.712;2023-04-25T08:13:10;14.70;99.90
48575;DHT22;34352;51.084;3.712;2023-04-25T08:15:38;14.40;99.90
48575;DHT22;34352;51.084;3.712;2023-04-25T08:18:18;15.70;99.90
48575;DHT22;34352;51.084;3.712;2023-04-25T08:20:52;15.20;99.90
48575;DHT22;34352;51.084;3.712;2023-04-25T08:23:44;15.20;99.90
48575;DHT22;34352;51.084;3.712;2023-04-25T08:26:16;16.60;99.90
48575;DHT22;34352;51.084;3.712;2023-04-25T08:29:11;18.20;99.90
48575;DHT22;34352;51.084;3.712;2023-04-25T08:31:37;19.50;99.90
48575;DHT22;34352;51.084;3.712;2023-04-25T08:34:02;19.90;99.90
48575;DHT22;34352;51.084;3.712;2023-04-25T08:36:36;20.40;99.90
48575;DHT22;34352;51.084;3.712;2023-04-25T08:39:09;21.20;99.90
48575;DHT22;34352;51.084;3.712;2023-04-25T08:41:37;21.90;99.90
48575;DHT22;34352;51.084;3.712;2023-04-25T08:44:03;21.40;99.90
48575;DHT22;34352;51.084;3.712;2023-04-25T08:46:32;22.00;99.90
48575;DHT22;34352;51.084;3.712;2023-04-25T08:49:01;22.50;99.90
48575;DHT22;34352;51.084;3.712;2023-04-25T08:51:31;22.70;99.90
48575;DHT22;34352;51.084;3.712;2023-04-25T08:54:10;23.30;99.90
48575;DHT22;34352;51.084;3.712;2023-04-25T08:56:41;23.90;99.90
48575;DHT22;34352;51.084;3.712;2023-04-25T08:59:13;22.80;99.90
48575;DHT22;34352;51.084;3.712;2023-04-25T09:01:41;21.30;99.90
48575;DHT22;34352;51.084;3.712;2023-04-25T09:04:07;19.20;99.90
48575;DHT22;34352;51.084;3.712;2023-04-25T09:06:33;17.60;99.90
48575;DHT22;34352;51.084;3.712;2023-04-25T09:09:05;15.60;99.90
48575;DHT22;34352;51.084;3.712;2023-04-25T09:11:36;14.60;99.90
48575;DHT22;34352;51.084;3.712;2023-04-25T09:14:14;14.20;99.90
48575;DHT22;34352;51.084;3.712;2023-04-25T09:17:01;13.00;99.90
48575;DHT22;34352;51.084;3.712;2023-04-25T09:19:50;12.30;99.90
48575;DHT22;34352;51.084;3.712;2023-04-25T09:22:21;11.50;99.90
48575;DHT22;34352;51.084;3.712;2023-04-25T09:24:52;12.40;99.90
48575;DHT22;34352;51.084;3.712;2023-04-25T09:27:21;11.60;99.90
48575;DHT22;34352;51.084;3.712;2023-04-25T09:29:58;11.80;99.90
48575;DHT22;34352;51.084;3.712;2023-04-25T09:32:28;12.30;99.90
48575;DHT22;34352;51.084;3.712;2023-04-25T09:34:56;13.50;99.90
48575;DHT22;34352;51.084;3.712;2023-04-25T09:37:27;14.50;99.90
48575;DHT22;34352;51.084;3.712;2023-04-25T09:39:57;16.40;99.90
48575;DHT22;34352;51.084;3.712;2023-04-25T09:42:29;18.10;99.90
48575;DHT22;34352;51.084;3.712;2023-04-25T09:44:57;19.00;99.90
48575;DHT22;34352;51.084;3.712;2023-04-25T09:47:25;18.70;99.90
48575;DHT22;34352;51.084;3.712;2023-04-25T09:49:53;18.50;99.90
48575;DHT22;34352;51.084;3.712;2023-04-25T09:52:23;18.50;99.90
48575;DHT22;34352;51.084;3.712;2023-04-25T09:54:49;18.30;99.90
48575;DHT22;34352;51.084;3.712;2023-04-25T09:57:21;17.60;99.90
48575;DHT22;34352;51.084;3.712;2023-04-25T09:59:48;17.10;99.90
48575;DHT22;34352;51.084;3.712;2023-04-25T10:02:16;16.70;99.90
48575;DHT22;34352;51.084;3.712;2023-04-25T10:04:47;16.40;99.90
48575;DHT22;34352;51.084;3.712;2023-04-25T10:07:15;16.00;99.90
48575;DHT22;34352;51.084;3.712;2023-04-25T10:09:48;16.10;99.90
48575;DHT22;34352;51.084;3.712;2023-04-25T10:12:16;16.60;99.90
48575;DHT22;34352;51.084;3.712;2023-04-25T10:14:42;18.40;99.90
48575;DHT22;34352;51.084;3.712;2023-04-25T10:17:10;19.30;99.90
48575;DHT22;34352;51.084;3.712;2023-04-25T10:19:37;19.00;99.90
48575;DHT22;34352;51.084;3.712;2023-04-25T10:22:07;18.20;99.90
48575;DHT22;34352;51.084;3.712;2023-04-25T10:24:39;16.70;99.90
48575;DHT22;34352;51.084;3.712;2023-04-25T10:27:06;15.80;99.90
48575;DHT22;34352;51.084;3.712;2023-04-25T10:29:32;15.50;99.90
48575;DHT22;34352;51.084;3.712;2023-04-25T10:31:58;15.40;99.90
48575;DHT22;34352;51.084;3.712;2023-04-25T10:34:37;15.40;99.90
48575;DHT22;34352;51.084;3.712;2023-04-25T10:37:04;15.50;99.90
48575;DHT22;34352;51.084;3.712;2023-04-25T10:39:30;15.50;99.90
48575;DHT22;34352;51.084;3.712;2023-04-25T10:42:02;15.60;99.90
48575;DHT22;34352;51.084;3.712;2023-04-25T10:44:32;15.60;99.90
48575;DHT22;34352;51.084;3.712;2023-04-25T10:46:59;15.60;99.90
48575;DHT22;34352;51.084;3.712;2023-04-25T10:49:33;15.60;99.90
48575;DHT22;34352;51.084;3.712;2023-04-25T10:54:42;15.70;99.90
48575;DHT22;34352;51.084;3.712;2023-04-25T10:57:44;16.30;99.90
48575;DHT22;34352;51.084;3.712;2023-04-25T11:00:22;16.30;99.90
48575;DHT22;34352;51.084;3.712;2023-04-25T11:02:51;16.20;99.90
48575;DHT22;34352;51.084;3.712;2023-04-25T11:05:27;16.40;99.90
48575;DHT22;34352;51.084;3.712;2023-04-25T11:07:55;17.00;99.90
48575;DHT22;34352;51.084;3.712;2023-04-25T11:10:27;18.40;99.90
48575;DHT22;34352;51.084;3.712;2023-04-25T11:12:53;19.00;99.90
48575;DHT22;34352;51.084;3.712;2023-04-25T11:15:19;19.60;99.90
48575;DHT22;34352;51.084;3.712;2023-04-25T11:17:44;19.90;99.90
48575;DHT22;34352;51.084;3.712;2023-04-25T11:20:13;19.60;99.90
48575;DHT22;34352;51.084;3.712;2023-04-25T11:22:39;18.90;99.90
48575;DHT22;34352;51.084;3.712;2023-04-25T11:25:10;18.20;99.90
48575;DHT22;34352;51.084;3.712;2023-04-25T11:27:57;17.60;99.90
48575;DHT22;34352;51.084;3.712;2023-04-25T11:30:25;16.90;99.90
48575;DHT22;34352;51.084;3.712;2023-04-25T11:32:52;16.60;99.90
48575;DHT22;34352;51.084;3.712;2023-04-25T11:35:19;16.50;99.90
48575;DHT22;34352;51.084;3.712;2023-04-25T11:37:46;17.40;99.90
48575;DHT22;34352;51.084;3.712;2023-04-25T11:40:13;17.50;99.90
48575;DHT22;34352;51.084;3.712;2023-04-25T11:42:43;17.40;99.90
48575;DHT22;34352;51.084;3.712;2023-04-25T11:45:11;17.80;99.90
48575;DHT22;34352;51.084;3.712;2023-04-25T11:47:37;17.80;99.90
48575;DHT22;34352;51.084;3.712;2023-04-25T11:50:04;18.40;99.90
48575;DHT22;34352;51.084;3.712;2023-04-25T11:52:42;18.30;99.90
48575;DHT22;34352;51.084;3.712;2023-04-25T11:55:10;17.90;99.90
48575;DHT22;34352;51.084;3.712;2023-04-25T11:57:41;17.80;99.90
48575;DHT22;34352;51.084;3.712;2023-04-25T12:00:14;18.30;99.90
48575;DHT22;34352;51.084;3.712;2023-04-25T12:02:45;18.90;99.90
48575;DHT22;34352;51.084;3.712;2023-04-25T12:05:12;20.00;99.90
48575;DHT22;34352;51.084;3.712;2023-04-25T12:07:38;19.80;99.90
48575;DHT22;34352;51.084;3.712;2023-04-25T12:10:08;20.80;99.90
48575;DHT22;34352;51.084;3.712;2023-04-25T12:12:35;21.40;99.90
48575;DHT22;34352;51.084;3.712;2023-04-25T12:15:15;21.20;99.90
48575;DHT22;34352;51.084;3.712;2023-04-25T12:17:54;20.00;99.90
48575;DHT22;34352;51.084;3.712;2023-04-25T12:20:24;19.70;99.90
48575;DHT22;34352;51.084;3.712;2023-04-25T12:22:51;18.90;99.90
48575;DHT22;34352;51.084;3.712;2023-04-25T12:25:43;18.20;99.90
48575;DHT22;34352;51.084;3.712;2023-04-25T12:31:02;16.60;99.90
48575;DHT22;34352;51.084;3.712;2023-04-25T12:33:34;16.10;99.90
48575;DHT22;34352;51.084;3.712;2023-04-25T12:36:02;15.40;99.90
48575;DHT22;34352;51.084;3.712;2023-04-25T12:38:39;15.40;99.90
48575;DHT22;34352;51.084;3.712;2023-04-25T12:41:05;15.90;99.90
48575;DHT22;34352;51.084;3.712;2023-04-25T12:43:31;16.90;99.90
48575;DHT22;34352;51.084;3.712;2023-04-25T12:45:57;16.90;99.90
48575;DHT22;34352;51.084;3.712;2023-04-25T12:48:23;16.50;99.90
48575;DHT22;34352;51.084;3.712;2023-04-25T12:50:50;15.90;99.90
48575;DHT22;34352;51.084;3.712;2023-04-25T12:53:19;15.50;99.90
48575;DHT22;34352;51.084;3.712;2023-04-25T12:55:47;15.20;99.90
48575;DHT22;34352;51.084;3.712;2023-04-25T12:58:15;14.90;99.90
48575;DHT22;34352;51.084;3.712;2023-04-25T13:00:42;14.70;99.90
48575;DHT22;34352;51.084;3.712;2023-04-25T13:03:09;14.30;99.90
48575;DHT22;34352;51.084;3.712;2023-04-25T13:05:36;14.00;99.90
48575;DHT22;34352;51.084;3.712;2023-04-25T13:08:03;14.10;99.90
48575;DHT22;34352;51.084;3.712;2023-04-25T13:10:29;14.20;99.90
48575;DHT22;34352;51.084;3.712;2023-04-25T13:12:57;14.50;99.90
48575;DHT22;34352;51.084;3.712;2023-04-25T13:15:23;14.70;99.90
48575;DHT22;34352;51.084;3.712;2023-04-25T13:17:49;14.90;99.90
48575;DHT22;34352;51.084;3.712;2023-04-25T13:20:14;14.40;99.90
48575;DHT22;34352;51.084;3.712;2023-04-25T13:22:43;14.70;99.90
48575;DHT22;34352;51.084;3.712;2023-04-25T13:25:11;14.40;99.90
48575;DHT22;34352;51.084;3.712;2023-04-25T13:27:37;14.00;99.90
48575;DHT22;34352;51.084;3.712;2023-04-25T13:30:04;13.90;99.90
48575;DHT22;34352;51.084;3.712;2023-04-25T13:32:33;13.80;99.90
48575;DHT22;34352;51.084;3.712;2023-04-25T13:35:02;14.30;99.90
48575;DHT22;34352;51.084;3.712;2023-04-25T13:37:29;15.30;99.90
48575;DHT22;34352;51.084;3.712;2023-04-25T13:39:56;16.40;99.90
48575;DHT22;34352;51.084;3.712;2023-04-25T13:42:23;17.40;99.90
48575;DHT22;34352;51.084;3.712;2023-04-25T13:44:48;18.20;99.90
48575;DHT22;34352;51.084;3.712;2023-04-25T13:47:14;18.10;99.90
48575;DHT22;34352;51.084;3.712;2023-04-25T13:49:40;17.60;99.90
48575;DHT22;34352;51.084;3.712;2023-04-25T13:52:05;17.30;99.90
48575;DHT22;34352;51.084;3.712;2023-04-25T13:54:31;16.50;99.90
48575;DHT22;34352;51.084;3.712;2023-04-25T13:56:57;16.30;99.90
48575;DHT22;34352;51.084;3.712;2023-04-25T13:59:24;16.70;99.90
48575;DHT22;34352;51.084;3.712;2023-04-25T14:01:51;17.30;99.90
48575;DHT22;34352;51.084;3.712;2023-04-25T14:04:17;18.30;99.90
48575;DHT22;34352;51.084;3.712;2023-04-25T14:06:42;19.30;99.90
48575;DHT22;34352;51.084;3.712;2023-04-25T14:09:08;19.30;99.90
48575;DHT22;34352;51.084;3.712;2023-04-25T14:11:36;19.40;99.90
48575;DHT22;34352;51.084;3.712;2023-04-25T14:14:02;19.70;99.90
48575;DHT22;34352;51.084;3.712;2023-04-25T14:16:29;19.90;99.90
48575;DHT22;34352;51.084;3.712;2023-04-25T14:18:55;19.70;99.90
48575;DHT22;34352;51.084;3.712;2023-04-25T14:21:20;18.80;99.90
48575;DHT22;34352;51.084;3.712;2023-04-25T14:23:46;18.40;99.90
48575;DHT22;34352;51.084;3.712;2023-04-25T14:26:13;18.50;99.90
48575;DHT22;34352;51.084;3.712;2023-04-25T14:28:39;18.30;99.90
48575;DHT22;34352;51.084;3.712;2023-04-25T14:31:04;17.50;99.90
48575;DHT22;34352;51.084;3.712;2023-04-25T14:33:30;17.00;99.90
48575;DHT22;34352;51.084;3.712;2023-04-25T14:35:57;16.60;99.90
48575;DHT22;34352;51.084;3.712;2023-04-25T14:38:23;16.20;99.90
48575;DHT22;34352;51.084;3.712;2023-04-25T14:40:51;15.50;99.90
48575;DHT22;34352;51.084;3.712;2023-04-25T14:43:18;15.00;99.90
48575;DHT22;34352;51.084;3.712;2023-04-25T14:45:44;14.80;99.90
48575;DHT22;34352;51.084;3.712;2023-04-25T14:48:10;14.40;99.90
48575;DHT22;34352;51.084;3.712;2023-04-25T14:50:35;14.30;99.90
48575;DHT22;34352;51.084;3.712;2023-04-25T14:53:01;14.30;99.90
48575;DHT22;34352;51.084;3.712;2023-04-25T14:55:27;14.30;99.90
48575;DHT22;34352;51.084;3.712;2023-04-25T14:57:54;14.20;99.90
48575;DHT22;34352;51.084;3.712;2023-04-25T15:00:21;14.00;99.90
48575;DHT22;34352;51.084;3.712;2023-04-25T15:02:50;13.90;99.90
48575;DHT22;34352;51.084;3.712;2023-04-25T15:05:16;13.90;99.90
48575;DHT22;34352;51.084;3.712;2023-04-25T15:07:41;13.70;99.90
48575;DHT22;34352;51.084;3.712;2023-04-25T15:10:07;13.90;99.90
48575;DHT22;34352;51.084;3.712;2023-04-25T15:12:39;14.20;99.90
48575;DHT22;34352;51.084;3.712;2023-04-25T15:15:07;14.50;99.90
48575;DHT22;34352;51.084;3.712;2023-04-25T15:17:40;14.80;99.90
48575;DHT22;34352;51.084;3.712;2023-04-25T15:20:07;15.00;99.90
48575;DHT22;34352;51.084;3.712;2023-04-25T15:22:33;14.90;99.90
48575;DHT22;34352;51.084;3.712;2023-04-25T15:24:59;14.80;99.90
48575;DHT22;34352;51.084;3.712;2023-04-25T15:27:24;14.90;99.90
48575;DHT22;34352;51.084;3.712;2023-04-25T15:29:52;14.80;99.90
48575;DHT22;34352;51.084;3.712;2023-04-25T15:32:19;14.70;99.90
48575;DHT22;34352;51.084;3.712;2023-04-25T15:34:47;14.40;99.90
48575;DHT22;34352;51.084;3.712;2023-04-25T15:37:12;14.30;99.90
48575;DHT22;34352;51.084;3.712;2023-04-25T15:39:38;14.10;99.90
48575;DHT22;34352;51.084;3.712;2023-04-25T15:42:05;14.20;99.90
48575;DHT22;34352;51.084;3.712;2023-04-25T15:44:30;14.10;99.90
48575;DHT22;34352;51.084;3.712;2023-04-25T15:46:57;13.80;99.90
48575;DHT22;34352;51.084;3.712;2023-04-25T15:49:23;13.90;99.90
48575;DHT22;34352;51.084;3.712;2023-04-25T15:51:49;13.70;99.90
48575;DHT22;34352;51.084;3.712;2023-04-25T15:54:14;13.00;99.90
48575;DHT22;34352;51.084;3.712;2023-04-25T15:56:41;12.80;99.90
48575;DHT22;34352;51.084;3.712;2023-04-25T15:59:07;12.80;99.90
48575;DHT22;34352;51.084;3.712;2023-04-25T16:01:32;12.80;99.90
48575;DHT22;34352;51.084;3.712;2023-04-25T16:03:59;12.80;99.90
48575;DHT22;34352;51.084;3.712;2023-04-25T16:06:25;12.70;99.90
48575;DHT22;34352;51.084;3.712;2023-04-25T16:08:52;12.70;99.90
48575;DHT22;34352;51.084;3.712;2023-04-25T16:11:19;12.70;99.90
48575;DHT22;34352;51.084;3.712;2023-04-25T16:13:45;12.60;99.90